首页
METAR-TAF:

METAR-TAF

机场 :

埃森博阿国际机场

安卡拉埃森博阿, 土耳其

纬度: 40-07N, 经度: 032-59E, 海拔: 953米

当前天气观测

该预报发布于49分钟前的13:50 UTC
风速6节,风向西南
温度 19°C
湿度 49%
气压 1015 hPa
能见度10公里或以上
散云层高于4000英尺
多云层高于20000英尺

METAR: LTAC 231350Z 23006KT 9999 SCT040 BKN200 19/08 Q1015 NOSIG RMK RWY21L 21006KT RWY03L 23004KT RWY21R 21007KT

时间: 17:39 (14:39 UTC)

预报

该预报发布于3小时和59分钟前的10:40 UTC
预报有效从23日的 12点(UTC)到 24日的 12点(UTC)
风速2节,风向多变
能见度10公里或以上
散云层高于4000英尺
多云层高于10000英尺
成为
从 24日的 08点(UTC)到 24日的 10点(UTC)
风速15节,风向西转西南

TAF: LTAC 231040Z 2312/2412 VRB02KT 9999 SCT040 BKN100 BECMG 2408/2410 24015KT

超过4000个机场的气象观测和天气预报(METAR&TAF报告)。

可查询的气象台以黄色和红色小点在地图上表示。

将鼠标移到小点上方,可查看气象台名称。

然后点击查看天气观测和预报。

如需切换地图:点击带黑十字的绿色按钮放大地图;点击带横线的绿色按钮缩小地图;或者点击绿色箭头查看邻近地区的地图。


METAR-TAF: